Ken Boothe Sr — WDG3360 — position and weather

sailwx.info

Track history (hours):
 
Tides and Currents Weather Stations Pressure Air Temp Water Temp Dewpoint Dewpoint Depression Visibility Wind Speed Wind Dir Waves Ship Positions

Ken Boothe Sr

Owner: AMERICAN STEAMSHIP COMPANY, WILLIAMSVILLE, NY. More information available from US FCC via Universal Licensing System and Coast Guard Vessel Documentation Center.

Last reported at 2016-May-17 12:15 UTC. Time now 2016-May-30 07:00 UTC.
Position N 46°17' W 084°13'.
Warning: this ship's position is 12 days out of date.

Length 30 m; draft 7.9 m.

Type: Towing. MMSI: 367525230.

Date/timePositionNaut miles runAvg speedWind from/ knotsBaromVisibWave heightAir tempDewpointWater temp
2016-May-17 12:15N 46°17' W 084°13'306 5.9
2016-May-15 08:22N 46°57' W 091°35'1011.8
2016-May-15 07:33N 46°53' W 091°48'1211.6
2016-May-15 06:34N 46°48' W 092°03'4 3.8
2016-May-15 05:33N 46°44' W 092°04'0 0.1
2016-May-15 04:33N 46°44' W 092°05'0 0.0
2016-May-15 03:33N 46°44' W 092°05'0 0.0
2016-May-15 02:33N 46°44' W 092°05'0 0.0
2016-May-15 01:33N 46°44' W 092°05'0 0.0
2016-May-15 00:33N 46°44' W 092°05'0 0.0
2016-May-14 23:33N 46°44' W 092°05'0 0.0
2016-May-14 22:33N 46°44' W 092°05'0 0.0
2016-May-14 21:33N 46°44' W 092°05'0 0.0
2016-May-14 20:33N 46°44' W 092°05'0 0.0
2016-May-14 19:33N 46°44' W 092°05'0 0.0
2016-May-14 18:33N 46°44' W 092°05'0 0.0
2016-May-14 17:34N 46°44' W 092°05'0 0.0
2016-May-14 16:34N 46°44' W 092°05'0 0.0
2016-May-14 15:33N 46°44' W 092°05'0 0.0
2016-May-14 14:33N 46°44' W 092°05'0 0.0
2016-May-14 13:33N 46°44' W 092°05'0 0.0
2016-May-14 12:33N 46°44' W 092°05'1 1.0
2016-May-14 11:33N 46°45' W 092°05'1 0.8
2016-May-14 10:33N 46°46' W 092°06'0 0.0
2016-May-14 09:33N 46°46' W 092°06'0 0.0
2016-May-14 08:33N 46°46' W 092°06'0 0.0
2016-May-14 07:33N 46°46' W 092°06'0 0.0
2016-May-14 06:33N 46°46' W 092°06'2 1.7
2016-May-14 05:33N 46°47' W 092°05'1010.2
2016-May-14 04:34N 46°51' W 091°51'1111.4
2016-May-14 03:34N 46°55' W 091°36'  
Track history (hours):
 
Tides and Currents Weather Stations Pressure Air Temp Water Temp Dewpoint Dewpoint Depression Visibility Wind Speed Wind Dir Waves Ship Positions

Ken Boothe Sr

Owner: AMERICAN STEAMSHIP COMPANY, WILLIAMSVILLE, NY. More information available from US FCC via Universal Licensing System and Coast Guard Vessel Documentation Center.

Last reported at 2016-May-17 12:15 UTC. Time now 2016-May-30 07:00 UTC.
Position N 46°17' W 084°13'.
Warning: this ship's position is 12 days out of date.

Length 30 m; draft 7.9 m.

Type: Towing. MMSI: 367525230.

Date/timePositionNaut miles runAvg speedWind from/ knotsBaromVisibWave heightAir tempDewpointWater temp
2016-May-17 12:15N 46°17' W 084°13'306 5.9
2016-May-15 08:22N 46°57' W 091°35'1011.8
2016-May-15 07:33N 46°53' W 091°48'1211.6
2016-May-15 06:34N 46°48' W 092°03'4 3.8
2016-May-15 05:33N 46°44' W 092°04'0 0.1
2016-May-15 04:33N 46°44' W 092°05'0 0.0
2016-May-15 03:33N 46°44' W 092°05'0 0.0
2016-May-15 02:33N 46°44' W 092°05'0 0.0
2016-May-15 01:33N 46°44' W 092°05'0 0.0
2016-May-15 00:33N 46°44' W 092°05'0 0.0
2016-May-14 23:33N 46°44' W 092°05'0 0.0
2016-May-14 22:33N 46°44' W 092°05'0 0.0
2016-May-14 21:33N 46°44' W 092°05'0 0.0
2016-May-14 20:33N 46°44' W 092°05'0 0.0
2016-May-14 19:33N 46°44' W 092°05'0 0.0
2016-May-14 18:33N 46°44' W 092°05'0 0.0
2016-May-14 17:34N 46°44' W 092°05'0 0.0
2016-May-14 16:34N 46°44' W 092°05'0 0.0
2016-May-14 15:33N 46°44' W 092°05'0 0.0
2016-May-14 14:33N 46°44' W 092°05'0 0.0
2016-May-14 13:33N 46°44' W 092°05'0 0.0
2016-May-14 12:33N 46°44' W 092°05'1 1.0
2016-May-14 11:33N 46°45' W 092°05'1 0.8
2016-May-14 10:33N 46°46' W 092°06'0 0.0
2016-May-14 09:33N 46°46' W 092°06'0 0.0
2016-May-14 08:33N 46°46' W 092°06'0 0.0
2016-May-14 07:33N 46°46' W 092°06'0 0.0
2016-May-14 06:33N 46°46' W 092°06'2 1.7
2016-May-14 05:33N 46°47' W 092°05'1010.2
2016-May-14 04:34N 46°51' W 091°51'1111.4
2016-May-14 03:34N 46°55' W 091°36'  

Dump ship's entire track history